KABY/ABY METAR and TAF weather

Enter ICAO airport designator
Station Type Date Time Source
KABY METAR 2022/06/28 23:53 UTC NOAA

KABY 282353Z AUTO 13006KT 10SM SCT085 30/19 A3007 RMK AO2 PRESRR SLP181 T03000194 10372 20300 53016


Station Type Date Time Source
KABY Decoded METAR 2022/06/28 23:53 UTC NOAA

ALBANY SOUTHWEST GEORGIA, GA, United States (KABY) 31-32N 084-12W 58M
Jun 28, 2022 - 07:53 PM EDT / 2022.06.28 2353 UTC
Wind: from the SE (130 degrees) at 7 MPH (6 KT):0
Visibility: 10 mile(s):0
Sky conditions: partly cloudy
Temperature: 86.0 F (30.0 C)
Dew Point: 66.9 F (19.4 C)
Relative Humidity: 53%
Pressure (altimeter): 30.07 in. Hg (1018 hPa)
Pressure tendency: rising rapidly - 0.05 inches (1.6 hPa) higher than three hours ago
ob: KABY 282353Z AUTO 13006KT 10SM SCT085 30/19 A3007 RMK AO2 PRESRR SLP181 T03000194 10372 20300 53016
cycle: 0

Station Type Date Time Source
KABY TAF 2022/06/28 18:27 UTC NOAA

TAF KABY 281725Z 2818/2918 12005KT P6SM SCT050
FM282000 15006KT P6SM VCTS BKN100CB
FM290200 VRB06KT P6SM -SHRA VCTS BKN080CB
FM290600 VRB03KT P6SM VCSH SCT060
FM291600 VRB04KT P6SM SCT060

Example: see airport list